sensor_id;sensor_type;location;lat;lon;timestamp;pressure;altitude;pressure_sealevel;temperature;humidity
28921;BME280;16035;53.594;9.952;2022-08-19T00:00:35;101168.50;;;21.33;67.16
28921;BME280;16035;53.594;9.952;2022-08-19T00:02:36;101163.78;;;21.33;67.37
28921;BME280;16035;53.594;9.952;2022-08-19T00:04:36;101165.25;;;21.31;67.32
28921;BME280;16035;53.594;9.952;2022-08-19T00:06:40;101161.34;;;21.32;67.21
28921;BME280;16035;53.594;9.952;2022-08-19T00:08:40;101163.50;;;21.35;67.32
28921;BME280;16035;53.594;9.952;2022-08-19T00:10:41;101152.72;;;21.33;67.33
28921;BME280;16035;53.594;9.952;2022-08-19T00:12:41;101151.91;;;21.33;67.22
28921;BME280;16035;53.594;9.952;2022-08-19T00:14:42;101143.00;;;21.36;67.04
28921;BME280;16035;53.594;9.952;2022-08-19T00:16:44;101138.75;;;21.30;66.92
28921;BME280;16035;53.594;9.952;2022-08-19T00:18:46;101140.53;;;21.26;66.99
28921;BME280;16035;53.594;9.952;2022-08-19T00:20:46;101144.56;;;21.19;67.40
28921;BME280;16035;53.594;9.952;2022-08-19T00:22:47;101149.09;;;21.15;67.26
28921;BME280;16035;53.594;9.952;2022-08-19T00:24:48;101151.88;;;21.15;67.39
28921;BME280;16035;53.594;9.952;2022-08-19T00:26:48;101150.06;;;21.11;67.41
28921;BME280;16035;53.594;9.952;2022-08-19T00:28:48;101149.59;;;21.09;67.42
28921;BME280;16035;53.594;9.952;2022-08-19T00:30:49;101153.16;;;21.09;67.46
28921;BME280;16035;53.594;9.952;2022-08-19T00:32:51;101144.53;;;21.11;67.67
28921;BME280;16035;53.594;9.952;2022-08-19T00:34:55;101148.63;;;21.13;67.80
28921;BME280;16035;53.594;9.952;2022-08-19T00:36:57;101148.00;;;21.16;67.57
28921;BME280;16035;53.594;9.952;2022-08-19T00:38:57;101143.28;;;21.17;67.50
28921;BME280;16035;53.594;9.952;2022-08-19T00:40:58;101142.75;;;21.15;67.46
28921;BME280;16035;53.594;9.952;2022-08-19T00:42:59;101147.00;;;21.12;67.64
28921;BME280;16035;53.594;9.952;2022-08-19T00:44:59;101143.44;;;21.12;67.44
28921;BME280;16035;53.594;9.952;2022-08-19T00:47:00;101137.41;;;21.10;67.45
28921;BME280;16035;53.594;9.952;2022-08-19T00:49:02;101134.97;;;21.08;67.64
28921;BME280;16035;53.594;9.952;2022-08-19T00:51:06;101139.34;;;21.09;67.39
28921;BME280;16035;53.594;9.952;2022-08-19T00:53:06;101138.03;;;21.07;67.55
28921;BME280;16035;53.594;9.952;2022-08-19T00:55:08;101126.16;;;21.06;67.69
28921;BME280;16035;53.594;9.952;2022-08-19T00:57:15;101123.56;;;21.10;67.84
28921;BME280;16035;53.594;9.952;2022-08-19T00:59:18;101124.91;;;21.12;67.56
28921;BME280;16035;53.594;9.952;2022-08-19T01:01:19;101123.56;;;21.10;67.43
28921;BME280;16035;53.594;9.952;2022-08-19T01:03:20;101121.78;;;21.05;67.56
28921;BME280;16035;53.594;9.952;2022-08-19T01:05:24;101128.44;;;21.04;67.68
28921;BME280;16035;53.594;9.952;2022-08-19T01:07:27;101128.75;;;21.03;67.62
28921;BME280;16035;53.594;9.952;2022-08-19T01:09:29;101129.09;;;21.01;67.64
28921;BME280;16035;53.594;9.952;2022-08-19T01:11:31;101127.78;;;20.99;67.89
28921;BME280;16035;53.594;9.952;2022-08-19T01:13:34;101133.31;;;20.99;67.80
28921;BME280;16035;53.594;9.952;2022-08-19T01:15:42;101127.78;;;20.99;67.94
28921;BME280;16035;53.594;9.952;2022-08-19T01:17:44;101125.66;;;20.95;67.97
28921;BME280;16035;53.594;9.952;2022-08-19T01:19:46;101123.25;;;20.94;68.03
28921;BME280;16035;53.594;9.952;2022-08-19T01:21:52;101119.81;;;20.97;67.97
28921;BME280;16035;53.594;9.952;2022-08-19T01:23:56;101117.84;;;20.98;67.95
28921;BME280;16035;53.594;9.952;2022-08-19T01:25:56;101117.56;;;20.99;67.89
28921;BME280;16035;53.594;9.952;2022-08-19T01:27:57;101111.22;;;20.99;68.16
28921;BME280;16035;53.594;9.952;2022-08-19T01:29:58;101123.56;;;21.01;68.07
28921;BME280;16035;53.594;9.952;2022-08-19T01:31:58;101127.47;;;21.00;68.11
28921;BME280;16035;53.594;9.952;2022-08-19T01:34:01;101120.31;;;20.99;68.12
28921;BME280;16035;53.594;9.952;2022-08-19T01:36:16;101126.84;;;21.03;68.16
28921;BME280;16035;53.594;9.952;2022-08-19T01:38:24;101122.25;;;21.07;68.20
28921;BME280;16035;53.594;9.952;2022-08-19T01:40:29;101113.97;;;21.07;67.91
28921;BME280;16035;53.594;9.952;2022-08-19T01:42:30;101111.88;;;21.04;67.87
28921;BME280;16035;53.594;9.952;2022-08-19T01:44:31;101107.78;;;21.02;67.99
28921;BME280;16035;53.594;9.952;2022-08-19T01:46:32;101109.56;;;20.98;68.06
28921;BME280;16035;53.594;9.952;2022-08-19T01:48:39;101110.72;;;20.97;68.34
28921;BME280;16035;53.594;9.952;2022-08-19T01:50:40;101100.28;;;20.93;68.13
28921;BME280;16035;53.594;9.952;2022-08-19T01:52:43;101096.25;;;20.91;68.15
28921;BME280;16035;53.594;9.952;2022-08-19T01:54:44;101093.47;;;20.91;68.65
28921;BME280;16035;53.594;9.952;2022-08-19T01:56:44;101092.84;;;20.94;68.62
28921;BME280;16035;53.594;9.952;2022-08-19T01:58:50;101086.19;;;20.95;68.47
28921;BME280;16035;53.594;9.952;2022-08-19T02:00:52;101085.66;;;20.93;68.38
28921;BME280;16035;53.594;9.952;2022-08-19T02:02:52;101090.53;;;20.87;68.40
28921;BME280;16035;53.594;9.952;2022-08-19T02:04:52;101097.22;;;20.86;68.68
28921;BME280;16035;53.594;9.952;2022-08-19T02:06:53;101095.09;;;20.92;68.86
28921;BME280;16035;53.594;9.952;2022-08-19T02:08:53;101101.13;;;20.94;68.66
28921;BME280;16035;53.594;9.952;2022-08-19T02:10:53;101099.50;;;20.93;68.61
28921;BME280;16035;53.594;9.952;2022-08-19T02:12:54;101104.03;;;20.89;68.64
28921;BME280;16035;53.594;9.952;2022-08-19T02:14:54;101094.13;;;20.88;68.84
28921;BME280;16035;53.594;9.952;2022-08-19T02:16:55;101090.22;;;20.89;68.61
28921;BME280;16035;53.594;9.952;2022-08-19T02:18:55;101080.47;;;20.83;68.73
28921;BME280;16035;53.594;9.952;2022-08-19T02:20:55;101079.66;;;20.82;68.84
28921;BME280;16035;53.594;9.952;2022-08-19T02:22:56;101076.88;;;20.82;68.94
28921;BME280;16035;53.594;9.952;2022-08-19T02:24:56;101074.94;;;20.83;69.09
28921;BME280;16035;53.594;9.952;2022-08-19T02:26:56;101068.59;;;20.82;69.04
28921;BME280;16035;53.594;9.952;2022-08-19T02:28:58;101061.94;;;20.83;69.11
28921;BME280;16035;53.594;9.952;2022-08-19T02:31:00;101058.38;;;20.83;69.29
28921;BME280;16035;53.594;9.952;2022-08-19T02:33:02;101065.22;;;20.85;69.02
28921;BME280;16035;53.594;9.952;2022-08-19T02:35:03;101056.41;;;20.83;69.17
28921;BME280;16035;53.594;9.952;2022-08-19T02:37:03;101059.50;;;20.82;69.13
28921;BME280;16035;53.594;9.952;2022-08-19T02:39:04;101071.69;;;20.81;69.53
28921;BME280;16035;53.594;9.952;2022-08-19T02:41:07;101073.50;;;20.85;69.61
28921;BME280;16035;53.594;9.952;2022-08-19T02:43:10;101076.25;;;20.85;69.24
28921;BME280;16035;53.594;9.952;2022-08-19T02:45:10;101086.00;;;20.83;69.27
28921;BME280;16035;53.594;9.952;2022-08-19T02:47:10;101086.31;;;20.81;69.77
28921;BME280;16035;53.594;9.952;2022-08-19T02:49:11;101082.59;;;20.86;69.54
28921;BME280;16035;53.594;9.952;2022-08-19T02:51:16;101088.94;;;20.86;69.50
28921;BME280;16035;53.594;9.952;2022-08-19T02:53:17;101075.09;;;20.78;69.25
28921;BME280;16035;53.594;9.952;2022-08-19T02:55:18;101069.41;;;20.74;69.54
28921;BME280;16035;53.594;9.952;2022-08-19T02:57:18;101071.69;;;20.72;69.44
28921;BME280;16035;53.594;9.952;2022-08-19T02:59:19;101072.66;;;20.67;69.54
28921;BME280;16035;53.594;9.952;2022-08-19T03:01:23;101076.22;;;20.68;69.81
28921;BME280;16035;53.594;9.952;2022-08-19T03:03:24;101081.91;;;20.72;69.85
28921;BME280;16035;53.594;9.952;2022-08-19T03:05:25;101078.97;;;20.68;69.72
28921;BME280;16035;53.594;9.952;2022-08-19T03:07:25;101084.81;;;20.66;69.66
28921;BME280;16035;53.594;9.952;2022-08-19T03:09:25;101079.75;;;20.60;69.69
28921;BME280;16035;53.594;9.952;2022-08-19T03:11:31;101088.19;;;20.55;69.73
28921;BME280;16035;53.594;9.952;2022-08-19T03:13:31;101085.63;;;20.58;70.21
28921;BME280;16035;53.594;9.952;2022-08-19T03:15:32;101087.22;;;20.59;70.13
28921;BME280;16035;53.594;9.952;2022-08-19T03:17:34;101089.47;;;20.57;69.87
28921;BME280;16035;53.594;9.952;2022-08-19T03:19:34;101085.91;;;20.57;70.19
28921;BME280;16035;53.594;9.952;2022-08-19T03:21:35;101088.38;;;20.58;70.45
28921;BME280;16035;53.594;9.952;2022-08-19T03:23:35;101076.66;;;20.61;70.29
28921;BME280;16035;53.594;9.952;2022-08-19T03:25:38;101078.47;;;20.66;70.29
28921;BME280;16035;53.594;9.952;2022-08-19T03:27:40;101080.59;;;20.69;70.30
28921;BME280;16035;53.594;9.952;2022-08-19T03:29:40;101083.19;;;20.65;69.92
28921;BME280;16035;53.594;9.952;2022-08-19T03:31:42;101082.84;;;20.58;69.99
28921;BME280;16035;53.594;9.952;2022-08-19T03:33:43;101086.88;;;20.52;70.16
28921;BME280;16035;53.594;9.952;2022-08-19T03:35:44;101086.81;;;20.43;70.22
28921;BME280;16035;53.594;9.952;2022-08-19T03:37:45;101091.34;;;20.39;70.33
28921;BME280;16035;53.594;9.952;2022-08-19T03:39:45;101091.66;;;20.38;70.36
28921;BME280;16035;53.594;9.952;2022-08-19T03:41:47;101097.00;;;20.34;70.41
28921;BME280;16035;53.594;9.952;2022-08-19T03:43:50;101098.94;;;20.34;70.55
28921;BME280;16035;53.594;9.952;2022-08-19T03:46:03;101095.72;;;20.32;70.53
28921;BME280;16035;53.594;9.952;2022-08-19T03:48:04;101093.56;;;20.29;70.63
28921;BME280;16035;53.594;9.952;2022-08-19T03:50:04;101093.38;;;20.25;70.95
28921;BME280;16035;53.594;9.952;2022-08-19T03:52:05;101100.22;;;20.28;70.87
28921;BME280;16035;53.594;9.952;2022-08-19T03:54:09;101099.44;;;20.27;70.87
28921;BME280;16035;53.594;9.952;2022-08-19T03:56:10;101097.28;;;20.24;70.83
28921;BME280;16035;53.594;9.952;2022-08-19T03:58:10;101109.59;;;20.18;70.98
28921;BME280;16035;53.594;9.952;2022-08-19T04:00:12;101099.19;;;20.15;70.95
28921;BME280;16035;53.594;9.952;2022-08-19T04:02:12;101102.72;;;20.07;71.23
28921;BME280;16035;53.594;9.952;2022-08-19T04:04:13;101103.84;;;20.06;71.28
28921;BME280;16035;53.594;9.952;2022-08-19T04:06:22;101106.81;;;20.09;71.61
28921;BME280;16035;53.594;9.952;2022-08-19T04:08:22;101106.97;;;20.13;71.52
28921;BME280;16035;53.594;9.952;2022-08-19T04:10:23;101117.69;;;20.14;71.41
28921;BME280;16035;53.594;9.952;2022-08-19T04:12:24;101114.28;;;20.17;71.74
28921;BME280;16035;53.594;9.952;2022-08-19T04:14:27;101116.94;;;20.23;71.63
28921;BME280;16035;53.594;9.952;2022-08-19T04:16:29;101114.34;;;20.26;71.50
28921;BME280;16035;53.594;9.952;2022-08-19T04:18:30;101110.75;;;20.26;71.54
28921;BME280;16035;53.594;9.952;2022-08-19T04:20:31;101119.22;;;20.29;71.14
28921;BME280;16035;53.594;9.952;2022-08-19T04:22:31;101128.66;;;20.28;71.42
28921;BME280;16035;53.594;9.952;2022-08-19T04:24:33;101130.59;;;20.28;71.39
28921;BME280;16035;53.594;9.952;2022-08-19T04:26:35;101133.03;;;20.29;71.58
28921;BME280;16035;53.594;9.952;2022-08-19T04:28:36;101128.81;;;20.32;71.42
28921;BME280;16035;53.594;9.952;2022-08-19T04:30:43;101134.66;;;20.30;71.41
28921;BME280;16035;53.594;9.952;2022-08-19T04:32:44;101134.34;;;20.32;71.50
28921;BME280;16035;53.594;9.952;2022-08-19T04:34:44;101143.44;;;20.32;71.68
28921;BME280;16035;53.594;9.952;2022-08-19T04:36:44;101147.00;;;20.33;71.60
28921;BME280;16035;53.594;9.952;2022-08-19T04:38:45;101144.25;;;20.33;71.47
28921;BME280;16035;53.594;9.952;2022-08-19T04:40:48;101143.25;;;20.29;71.51
28921;BME280;16035;53.594;9.952;2022-08-19T04:43:08;101142.44;;;20.28;71.73
28921;BME280;16035;53.594;9.952;2022-08-19T04:45:11;101148.78;;;20.29;71.87
28921;BME280;16035;53.594;9.952;2022-08-19T04:47:12;101143.75;;;20.31;71.76
28921;BME280;16035;53.594;9.952;2022-08-19T04:49:12;101139.88;;;20.32;71.67
28921;BME280;16035;53.594;9.952;2022-08-19T04:51:13;101142.63;;;20.32;71.78
28921;BME280;16035;53.594;9.952;2022-08-19T04:53:13;101152.66;;;20.28;71.55
28921;BME280;16035;53.594;9.952;2022-08-19T04:55:14;101155.25;;;20.24;72.06
28921;BME280;16035;53.594;9.952;2022-08-19T04:57:14;101152.16;;;20.26;71.93
28921;BME280;16035;53.594;9.952;2022-08-19T04:59:16;101144.69;;;20.26;72.22
28921;BME280;16035;53.594;9.952;2022-08-19T05:01:22;101148.97;;;20.32;72.01
28921;BME280;16035;53.594;9.952;2022-08-19T05:03:23;101147.00;;;20.33;71.88
28921;BME280;16035;53.594;9.952;2022-08-19T05:05:23;101149.25;;;20.31;71.88
28921;BME280;16035;53.594;9.952;2022-08-19T05:07:23;101148.25;;;20.27;72.01
28921;BME280;16035;53.594;9.952;2022-08-19T05:09:24;101157.94;;;20.15;71.53
28921;BME280;16035;53.594;9.952;2022-08-19T05:11:28;101155.94;;;20.07;72.03
28921;BME280;16035;53.594;9.952;2022-08-19T05:13:28;101157.69;;;20.03;72.16
28921;BME280;16035;53.594;9.952;2022-08-19T05:15:29;101159.16;;;20.01;72.02
28921;BME280;16035;53.594;9.952;2022-08-19T05:17:29;101159.25;;;19.95;72.42
28921;BME280;16035;53.594;9.952;2022-08-19T05:19:30;101156.03;;;19.93;72.40
28921;BME280;16035;53.594;9.952;2022-08-19T05:21:49;101151.94;;;19.91;72.29
28921;BME280;16035;53.594;9.952;2022-08-19T05:24:08;101150.63;;;19.88;72.58
28921;BME280;16035;53.594;9.952;2022-08-19T05:26:08;101158.59;;;19.90;72.67
28921;BME280;16035;53.594;9.952;2022-08-19T05:28:11;101159.91;;;19.92;72.68
28921;BME280;16035;53.594;9.952;2022-08-19T05:30:11;101164.78;;;19.95;72.93
28921;BME280;16035;53.594;9.952;2022-08-19T05:32:12;101158.97;;;19.97;72.55
28921;BME280;16035;53.594;9.952;2022-08-19T05:34:12;101172.09;;;19.91;72.47
28921;BME280;16035;53.594;9.952;2022-08-19T05:36:13;101169.41;;;19.86;72.73
28921;BME280;16035;53.594;9.952;2022-08-19T05:38:14;101169.13;;;19.88;72.94
28921;BME280;16035;53.594;9.952;2022-08-19T05:40:14;101175.13;;;19.90;72.95
28921;BME280;16035;53.594;9.952;2022-08-19T05:42:15;101171.75;;;19.93;72.89
28921;BME280;16035;53.594;9.952;2022-08-19T05:44:16;101165.09;;;19.94;72.56
28921;BME280;16035;53.594;9.952;2022-08-19T05:46:18;101162.88;;;19.96;72.96
28921;BME280;16035;53.594;9.952;2022-08-19T05:48:19;101162.53;;;19.98;73.13
28921;BME280;16035;53.594;9.952;2022-08-19T05:50:20;101164.97;;;19.99;72.90
28921;BME280;16035;53.594;9.952;2022-08-19T05:52:21;101164.16;;;19.99;72.53
28921;BME280;16035;53.594;9.952;2022-08-19T05:54:22;101164.16;;;19.99;72.73
28921;BME280;16035;53.594;9.952;2022-08-19T05:56:26;101162.53;;;19.98;72.95
28921;BME280;16035;53.594;9.952;2022-08-19T05:58:26;101167.88;;;19.94;72.66
28921;BME280;16035;53.594;9.952;2022-08-19T06:00:27;101163.81;;;19.91;72.83
28921;BME280;16035;53.594;9.952;2022-08-19T06:02:28;101173.38;;;19.94;73.14
28921;BME280;16035;53.594;9.952;2022-08-19T06:04:30;101164.16;;;19.99;73.38
28921;BME280;16035;53.594;9.952;2022-08-19T06:06:31;101162.41;;;20.03;73.05
28921;BME280;16035;53.594;9.952;2022-08-19T06:08:31;101157.41;;;20.05;73.32
28921;BME280;16035;53.594;9.952;2022-08-19T06:10:33;101161.13;;;20.09;73.16
28921;BME280;16035;53.594;9.952;2022-08-19T06:12:34;101161.66;;;20.11;73.02
28921;BME280;16035;53.594;9.952;2022-08-19T06:14:36;101160.19;;;20.13;72.90
28921;BME280;16035;53.594;9.952;2022-08-19T06:16:38;101161.31;;;20.12;72.81
28921;BME280;16035;53.594;9.952;2022-08-19T06:18:39;101168.47;;;20.13;73.01
28921;BME280;16035;53.594;9.952;2022-08-19T06:20:40;101156.31;;;20.14;73.07
28921;BME280;16035;53.594;9.952;2022-08-19T06:22:41;101162.94;;;20.13;73.30
28921;BME280;16035;53.594;9.952;2022-08-19T06:24:42;101163.66;;;20.19;73.13
28921;BME280;16035;53.594;9.952;2022-08-19T06:26:45;101168.22;;;20.24;73.00
28921;BME280;16035;53.594;9.952;2022-08-19T06:28:47;101167.41;;;20.23;72.88
28921;BME280;16035;53.594;9.952;2022-08-19T06:30:48;101167.91;;;20.25;73.14
28921;BME280;16035;53.594;9.952;2022-08-19T06:32:48;101168.91;;;20.29;73.08
28921;BME280;16035;53.594;9.952;2022-08-19T06:34:48;101171.34;;;20.31;73.00
28921;BME280;16035;53.594;9.952;2022-08-19T06:36:51;101161.94;;;20.32;73.15
28921;BME280;16035;53.594;9.952;2022-08-19T06:38:51;101168.75;;;20.34;73.12
28921;BME280;16035;53.594;9.952;2022-08-19T06:41:00;101164.72;;;20.32;72.96
28921;BME280;16035;53.594;9.952;2022-08-19T06:43:01;101158.81;;;20.25;72.56
28921;BME280;16035;53.594;9.952;2022-08-19T06:45:02;101159.38;;;20.13;72.76
28921;BME280;16035;53.594;9.952;2022-08-19T06:47:05;101161.31;;;20.12;73.08
28921;BME280;16035;53.594;9.952;2022-08-19T06:49:06;101154.38;;;20.15;73.06
28921;BME280;16035;53.594;9.952;2022-08-19T06:51:10;101160.72;;;20.15;73.25
28921;BME280;16035;53.594;9.952;2022-08-19T06:53:11;101158.44;;;20.17;73.29
28921;BME280;16035;53.594;9.952;2022-08-19T06:55:11;101156.19;;;20.19;73.68
28921;BME280;16035;53.594;9.952;2022-08-19T06:57:11;101166.28;;;20.24;73.35
28921;BME280;16035;53.594;9.952;2022-08-19T06:59:20;101156.06;;;20.25;73.13
28921;BME280;16035;53.594;9.952;2022-08-19T07:01:21;101159.13;;;20.23;72.96
28921;BME280;16035;53.594;9.952;2022-08-19T07:03:21;101161.91;;;20.23;73.22
28921;BME280;16035;53.594;9.952;2022-08-19T07:05:22;101167.09;;;20.25;73.09
28921;BME280;16035;53.594;9.952;2022-08-19T07:07:22;101162.91;;;20.27;73.36
28921;BME280;16035;53.594;9.952;2022-08-19T07:09:22;101170.84;;;20.29;73.06
28921;BME280;16035;53.594;9.952;2022-08-19T07:11:23;101162.38;;;20.25;73.02
28921;BME280;16035;53.594;9.952;2022-08-19T07:13:24;101164.66;;;20.23;72.94
28921;BME280;16035;53.594;9.952;2022-08-19T07:15:24;101167.09;;;20.25;73.21
28921;BME280;16035;53.594;9.952;2022-08-19T07:17:25;101162.56;;;20.29;73.19
28921;BME280;16035;53.594;9.952;2022-08-19T07:19:26;101171.34;;;20.31;73.09
28921;BME280;16035;53.594;9.952;2022-08-19T07:21:28;101169.91;;;20.33;72.80
28921;BME280;16035;53.594;9.952;2022-08-19T07:23:28;101166.63;;;20.31;73.03
28921;BME280;16035;53.594;9.952;2022-08-19T07:25:28;101167.28;;;20.28;72.83
28921;BME280;16035;53.594;9.952;2022-08-19T07:27:29;101157.06;;;20.29;72.88
28921;BME280;16035;53.594;9.952;2022-08-19T07:29:32;101163.38;;;20.29;72.72
28921;BME280;16035;53.594;9.952;2022-08-19T07:31:33;101167.28;;;20.28;73.09
28921;BME280;16035;53.594;9.952;2022-08-19T07:33:37;101174.81;;;20.36;73.27
28921;BME280;16035;53.594;9.952;2022-08-19T07:35:38;101175.47;;;20.42;73.14
28921;BME280;16035;53.594;9.952;2022-08-19T07:37:38;101184.75;;;20.46;72.99
28921;BME280;16035;53.594;9.952;2022-08-19T07:39:44;101186.06;;;20.49;72.81
28921;BME280;16035;53.594;9.952;2022-08-19T07:41:44;101196.00;;;20.50;72.57
28921;BME280;16035;53.594;9.952;2022-08-19T07:43:47;101192.53;;;20.44;72.46
28921;BME280;16035;53.594;9.952;2022-08-19T07:45:48;101194.16;;;20.45;72.73
28921;BME280;16035;53.594;9.952;2022-08-19T07:47:48;101205.69;;;20.47;72.64
28921;BME280;16035;53.594;9.952;2022-08-19T07:49:49;101200.66;;;20.40;72.42
28921;BME280;16035;53.594;9.952;2022-08-19T07:51:53;101201.25;;;20.37;72.44
28921;BME280;16035;53.594;9.952;2022-08-19T07:53:55;101209.53;;;20.37;72.35
28921;BME280;16035;53.594;9.952;2022-08-19T07:55:55;101201.41;;;20.32;72.33
28921;BME280;16035;53.594;9.952;2022-08-19T07:58:01;101198.94;;;20.31;72.64
28921;BME280;16035;53.594;9.952;2022-08-19T08:00:04;101201.59;;;20.36;72.72
28921;BME280;16035;53.594;9.952;2022-08-19T08:02:05;101206.16;;;20.40;72.57
28921;BME280;16035;53.594;9.952;2022-08-19T08:04:06;101208.09;;;20.40;72.19
28921;BME280;16035;53.594;9.952;2022-08-19T08:06:26;101214.75;;;20.39;72.38
28921;BME280;16035;53.594;9.952;2022-08-19T08:08:44;101223.84;;;20.39;72.11
28921;BME280;16035;53.594;9.952;2022-08-19T08:10:45;101223.97;;;20.34;72.22
28921;BME280;16035;53.594;9.952;2022-08-19T08:12:45;101225.91;;;20.34;72.36
28921;BME280;16035;53.594;9.952;2022-08-19T08:14:52;101227.88;;;20.33;72.31
28921;BME280;16035;53.594;9.952;2022-08-19T08:16:52;101230.50;;;20.38;72.43
28921;BME280;16035;53.594;9.952;2022-08-19T08:18:53;101228.41;;;20.44;72.62
28921;BME280;16035;53.594;9.952;2022-08-19T08:20:54;101231.91;;;20.50;72.49
28921;BME280;16035;53.594;9.952;2022-08-19T08:22:55;101235.16;;;20.52;72.38
28921;BME280;16035;53.594;9.952;2022-08-19T08:25:18;101229.44;;;20.48;72.13
28921;BME280;16035;53.594;9.952;2022-08-19T08:27:20;101234.97;;;20.48;72.24
28921;BME280;16035;53.594;9.952;2022-08-19T08:29:20;101233.53;;;20.51;72.34
28921;BME280;16035;53.594;9.952;2022-08-19T08:31:21;101238.72;;;20.52;72.14
28921;BME280;16035;53.594;9.952;2022-08-19T08:33:25;101234.81;;;20.53;72.18
28921;BME280;16035;53.594;9.952;2022-08-19T08:35:25;101239.72;;;20.56;72.25
28921;BME280;16035;53.594;9.952;2022-08-19T08:37:26;101233.56;;;20.59;71.99
28921;BME280;16035;53.594;9.952;2022-08-19T08:39:26;101234.81;;;20.53;71.83
28921;BME280;16035;53.594;9.952;2022-08-19T08:43:35;101237.72;;;20.48;72.03
28921;BME280;16035;53.594;9.952;2022-08-19T08:45:43;101238.53;;;20.49;72.09
28921;BME280;16035;53.594;9.952;2022-08-19T08:47:48;101236.28;;;20.51;72.33
28921;BME280;16035;53.594;9.952;2022-08-19T08:52:18;101243.00;;;20.58;72.06
28921;BME280;16035;53.594;9.952;2022-08-19T08:54:24;101239.59;;;20.61;71.96
28921;BME280;16035;53.594;9.952;2022-08-19T08:56:27;101243.66;;;20.64;72.17
28921;BME280;16035;53.594;9.952;2022-08-19T09:00:47;101238.44;;;20.62;71.98
28921;BME280;16035;53.594;9.952;2022-08-19T09:02:47;101241.72;;;20.64;72.27
28921;BME280;16035;53.594;9.952;2022-08-19T09:04:48;101239.34;;;20.72;71.96
28921;BME280;16035;53.594;9.952;2022-08-19T09:06:54;101242.56;;;20.74;72.08
28921;BME280;16035;53.594;9.952;2022-08-19T09:09:10;101245.72;;;20.81;71.86
28921;BME280;16035;53.594;9.952;2022-08-19T09:12:01;101245.38;;;20.82;72.00
28921;BME280;16035;53.594;9.952;2022-08-19T09:16:12;101242.56;;;20.74;71.68
28921;BME280;16035;53.594;9.952;2022-08-19T09:18:14;101235.25;;;20.69;71.59
28921;BME280;16035;53.594;9.952;2022-08-19T09:20:20;101247.44;;;20.68;71.68
28921;BME280;16035;53.594;9.952;2022-08-19T09:22:22;101251.00;;;20.68;71.89
28921;BME280;16035;53.594;9.952;2022-08-19T09:24:23;101244.53;;;20.73;71.91
28921;BME280;16035;53.594;9.952;2022-08-19T09:26:24;101249.28;;;20.81;72.08
28921;BME280;16035;53.594;9.952;2022-08-19T09:28:25;101242.09;;;20.80;71.92
28921;BME280;16035;53.594;9.952;2022-08-19T09:30:28;101251.56;;;20.88;71.70
28921;BME280;16035;53.594;9.952;2022-08-19T09:32:28;101259.56;;;20.89;71.50
28921;BME280;16035;53.594;9.952;2022-08-19T09:34:29;101247.81;;;20.84;71.37
28921;BME280;16035;53.594;9.952;2022-08-19T09:36:29;101248.78;;;20.79;71.39
28921;BME280;16035;53.594;9.952;2022-08-19T09:38:33;101245.34;;;20.74;71.27
28921;BME280;16035;53.594;9.952;2022-08-19T09:40:34;101236.69;;;20.66;71.47
28921;BME280;16035;53.594;9.952;2022-08-19T09:42:35;101240.09;;;20.63;71.63
28921;BME280;16035;53.594;9.952;2022-08-19T09:44:35;101241.09;;;20.67;71.91
28921;BME280;16035;53.594;9.952;2022-08-19T09:46:36;101236.25;;;20.73;71.79
28921;BME280;16035;53.594;9.952;2022-08-19T09:48:36;101238.69;;;20.75;71.59
28921;BME280;16035;53.594;9.952;2022-08-19T09:50:37;101236.59;;;20.80;71.78
28921;BME280;16035;53.594;9.952;2022-08-19T09:52:39;101236.63;;;20.89;71.76
28921;BME280;16035;53.594;9.952;2022-08-19T09:54:39;101230.97;;;20.94;71.79
28921;BME280;16035;53.594;9.952;2022-08-19T09:56:40;101242.69;;;21.00;71.79
28921;BME280;16035;53.594;9.952;2022-08-19T09:58:40;101238.31;;;21.07;72.00
28921;BME280;16035;53.594;9.952;2022-08-19T10:00:40;101243.88;;;21.16;71.71
28921;BME280;16035;53.594;9.952;2022-08-19T10:02:41;101240.31;;;21.15;71.32
28921;BME280;16035;53.594;9.952;2022-08-19T10:04:41;101230.56;;;21.18;71.86
28921;BME280;16035;53.594;9.952;2022-08-19T10:07:05;101242.28;;;21.24;71.52
28921;BME280;16035;53.594;9.952;2022-08-19T10:09:07;101243.44;;;21.23;71.38
28921;BME280;16035;53.594;9.952;2022-08-19T10:11:08;101231.03;;;21.20;71.25
28921;BME280;16035;53.594;9.952;2022-08-19T10:13:09;101243.88;;;21.16;71.40
28921;BME280;16035;53.594;9.952;2022-08-19T10:15:10;101239.50;;;21.15;71.31
28921;BME280;16035;53.594;9.952;2022-08-19T10:17:12;101252.81;;;21.13;71.26
28921;BME280;16035;53.594;9.952;2022-08-19T10:19:12;101255.75;;;21.08;71.40
28921;BME280;16035;53.594;9.952;2022-08-19T10:21:19;101247.25;;;21.04;71.60
28921;BME280;16035;53.594;9.952;2022-08-19T10:23:20;101255.56;;;21.04;71.54
28921;BME280;16035;53.594;9.952;2022-08-19T10:25:21;101247.56;;;21.03;71.76
28921;BME280;16035;53.594;9.952;2022-08-19T10:27:21;101249.69;;;21.06;71.73
28921;BME280;16035;53.594;9.952;2022-08-19T10:29:22;101246.13;;;21.05;71.97
28921;BME280;16035;53.594;9.952;2022-08-19T10:31:25;101245.34;;;21.13;71.85
28921;BME280;16035;53.594;9.952;2022-08-19T10:33:25;101242.75;;;21.17;71.86
28921;BME280;16035;53.594;9.952;2022-08-19T10:35:28;101249.59;;;21.19;71.68
28921;BME280;16035;53.594;9.952;2022-08-19T10:37:29;101254.16;;;21.24;71.94
28921;BME280;16035;53.594;9.952;2022-08-19T10:39:34;101246.50;;;21.21;71.66
28921;BME280;16035;53.594;9.952;2022-08-19T10:41:37;101245.69;;;21.20;71.42
28921;BME280;16035;53.594;9.952;2022-08-19T10:43:39;101245.19;;;21.18;71.51
28921;BME280;16035;53.594;9.952;2022-08-19T10:45:39;101248.28;;;21.17;71.52
28921;BME280;16035;53.594;9.952;2022-08-19T10:47:40;101244.06;;;21.19;71.60